<< September 2011 | 1 2 3 4 5 6 7 8 9 10 11 12 13 14 15 16 17 18 19 20 21 22 23 24 25 26 27 28 29 30 >>

♪ 遊びじゃないのよ 仕事は・・・ あはっつは~~♪ 明菜

「まっくさん やっぱ 遊びだったんじゃん!」
という ご意見が 多いので・・・・
名誉回復のために

世の中に SETPなる 組織があります
The Society of Experimental Test Pilots
SETP ← クリック

この会合のために 出張させていただきました
内容は
これ

う~ん でも 内容は よく思い出せない・・・
日本語で やってくれれば ぼくでも 半分ぐらいわかるんだけどね!
何しろ みんな 英語なんだもん

そういえば
ディズニー カリフォルニア アドベンチャーの 入り口の横に

Img_1149.jpg

こんなのありました~
まんざら 関係なくもないかも・・・
でも TEST PILOTじゃなくて TASTE PILOTだな~(笑)

世界で初めて 音速の壁を破った飛行機が この黄色い ベル X-1です
1947年10月14日 カリフォルニア州ミューロック乾湖 でチャック・イェーガー氏が
記録しました

だから カリフォルニアは テストパイロットにとって 聖地なんです
そうなると 当然 シンポジウムは ディズニーランドになってしまいます
(ちょっと 理屈に 無理がある?)

名誉回復になったかな~(自滅?)
仕事 | comments (4) | -

無事 帰国

なんとか 無事に 帰国いたしました
長かったような 短かったような・・・・

さて 今回の 渡米で 感じたことを 思いつくままに・・・・

1 ぼくを メタボだと 呼ばないで欲しい・・・

Img_0633.jpg

  私 身長 176cm 体重 82kg ウエスト 94cm
  アメリカ人に 比べたら すごく細いと思うんだけどね~(笑)

2 アメリカ人は 日本人よりも すごく 親切

  なんでも ちゃんと わかるまで 説明してくれるし
  すぐに 「SORRY」って言うし
  日本人が親切って よく言うけど 多分お世辞だね 

3 小銭が 貯まる

Image3.jpg

  12ドル42セントだったので
  12ドル52セント出したら 
  52セントじゃなくて 42セントだっていわれて
  2セント返されて おつりの 8セントをくれた
  だから どうしても 小銭が 増えちゃう・・・・

  でも この画像でも 合計100円ぐらいだから 余ってもいいんですがね!
  $1が¥76~80 申し訳ないぐいらいです

4 ピン札は 嫌い

  きれいなお札を出したら
  わざわざ ぐちゃぐちゃにして レジに入れた
  透かしも ちゃんと 確認するし

5 なんでも 同じ味

Image2.jpg

  何を 食べても 同じ味で 同じ香り
  味濃いし 甘い!
  しかし アメリカ人は 日本だと 何食べても 味ないだろうな~

6 ディズニーランドは 子供用が 混んでる

  平日なら どこでも待ち時間無しで 乗れる
  ファストパスとか とる必要はない
  週末でも 子供用以外なら 10分程度の 待ち時間で 乗れる
  最高に待っても 30分?
  ファストパス取ると 1時間後になる

Img_1037.jpg
Img_1035.jpg

7 なんでも量が 多い
 
Img_1021.jpg

  TDLでも 売っていたと思いますが
  ターキーレッグ! めちゃでかい 1人じゃ無理!
  日本の3倍はあるな~

8 シェリーメイはいない

Img_0544.jpg

  「まっくさん お土産は シェリーメイの ぬいぐるみね!」っと言われましたが
  アメリカには いくら探しても シェリーメイいないんです
  (もしかして 日本の創作?)
  それも やっと ダッフィーだけは いました
  ディズニーベアーは そこらじゅうにいるけど 顔が違うし

9 冷蔵庫がすごい

Img_0920.jpg

  一晩 水のボトルを入れておいたら 過冷却になっていて
  コップに注ぐと どんどん 氷になった

10 なにか壊れている

Img_0269.jpg

  せっかくですから 思い切って ベンツ借りました
  でも 電動シートが 動きませんでした・・・・

  ほかには ホテルの部屋で LANケーブルが 不調で NETにつながらず
  機械を代えてもらったら すぐにOK
  でも 遅かった・・・ 高速と書いてあったけど ISDN程度

  風呂の排水が 遅い これはよくあるな! ちゃんとお湯が出たから OK

Img_0414.jpg

11 USHの ジュラシックパークは USJの方が 濡れる

Img_0342.jpg

  でも 待ち時間は 5分

12 ショーは 楽しい

Img_0977.jpg

  これは アラジンのショーですが
  言葉はわからなくても けっこう 楽しい
  上手に 作ってる ジニーは噂通り 最高だと思います

  でも タートルトークは 100%わからなかった・・・
  すごく 受けてたから 楽しいんだろうな~

13 意味不明

Img_0964.jpg

  「海味山珍」 意味不明 あ~~ 「山海珍味」ね!
  多くの若者が 入れ墨しています 漢字を入れている人も 沢山いましたが
  これも 意味不明が多い 「台所」とか 入れちゃってるしぃ・・・

14 往復 777

Img_0259.jpg
 
  往復 B-777でしたが 弊社が作ってると思うと・・・
  それに 常に 揺れてた(ガタガタ ガタガタって)
  タービランス特性が 悪いな~ 設計不良だと思う
  機長は 気流のせいだと言っていた

Img_0242.jpg

  座席は ラッキーにも 往復 7番窓側 隣は空席
  でも ベッドポジションでも わずかな傾斜があって 寝にくい

15 Mach3ぐらいで 行きたい
   
   行き 9時間 帰り 11時間
   なんとか 耐えれる時間ですが これで 東海岸までは 無理だな~
   やっぱ Mach3ぐらいで飛んで 3時間ぐらいになると いいな~

16 勝手に お休みしちゃう

   アトラクションとか「今日は都合により休止」みたいな看板が出てて
   勝手に お休みなんです
   日本だったら 入場料返せ!と騒ぎそうですよね!
   でもみんな 特に文句も言っていません

   私が ビッグサンダーマウンテンに5回目のろうとしたら
   目の前で 壊れちゃって 突然休止
   「おいおおい 今まで10分並んだ時間は どうしてくれるんだ~~!」
   って 怒りそうですが
   みんな なぜか 笑顔・・・
Image10.jpg

   山の上で止まってる 連中は 特に大喜びしてました~

17 効率とか 関係ない

   みんな どこでも 静かに 並んで 待ってます
   もうちょっと こうやれば 効率が上がって 列が短くなるのに・・
   っと 思いますが
   だれも 文句も 言わずに 並んでます
   処理する人も 急ぐ気配もなく 淡々と お仕事しています
   日本人が せっかち?

18 明日の新聞が読める

Img_1165.jpg

   まだ 25日の日曜日なのに 明日の新聞が 読めます
   ロスは 日本より 17時間遅れですけど 情報は瞬時に入りますから
   こうなっちゃうんです


これが 今回の 出張報告かな~
会社内で 読んでる人が いないことを 願っていますぅ
ひとりごと | comments (9) | -

カリフォルニア アドベンチャー

だから~~ 仕事です ってば~~ぁ

今日は カリフォルニア・アドベンチャーの ご紹介です
日本で言えば ディズニー・シーみたいなものです

ディズニーランドの 隣にあって
ホッパーパスを購入すれば
両方の テーマパークに 出入り自由です

Img_0996.jpg

入り口は ディズニーランドもそうですが
なんか 地味
盛り上がりに 欠けるな~

一番の 呼び物は

Img_0936.jpg

タワーオブテラーだと 思っていましたが
違うんです
夜に 実施される
「ワールド オブ カラー」というショーが 一番だそうです

Img_1113.jpg

確かに すばらしかった
興味のある方は
YouTubeで ご確認ください
World Of Color
ちょっと 感動しちゃう!

あとは 無駄に ビッショリになる
グリズリー リバー ラン

Img_0994.jpg

Image1.jpg

5分も 待たないと 乗れません(笑)

あとは 今回は お休みでしたが
ミッキーの形をぐるっとまわる コースター
「カリフォルニア・スクリーミング」があります

そろそろ 疲れた~~~~~~ぁ
仕事 | comments (9) | -

ナッツベリー・ファーム

繰り返しますが 仕事です!

わずかばかり 時間ができたので
近所にある ナッツベリーファームなる 施設に行ってきました

Img_0712.jpg

超田舎の遊園地ですが
来る目的が あったのです

Img_0716.jpg

スヌーピーのテーマパークなんです
日本では スヌーピーは USJにいますが
アメリカでは ここにいます

Img_0714.jpg

しかし 内容は
ほとんどは 絶叫マシーンです
異常なぐらい 数が 多い
ジェットコースター好きには たまらないでしょうね~

Img_0722.jpg

お昼には いかにも 不健康そうな
リブ!
味は 期待していませんでしたが けっこういけた!

帰りに お土産屋さんに入ると

Img_0747.jpg

どうみても スヌーピーよりも キティーが 勝ってる
アメリカでは キティーの方が メジャー?

Img_0754.jpg

こちらの お店では さすがに スヌーピー尽くし
こうじゃなくっちゃね!
仕事 | comments (10) | -

ディズニーランド

だから~ 仕事で来ています

5時半に お仕事が 終わったので
6時過ぎから ディズニーランドに 行ってきました

Img_0770.jpg

日が すでに こんなに 傾いています

Img_0777.jpg

本当は 歩いて行った方が 近いのですが
乗ってみたかったので モノレールを 利用しました
これは TDLのほうが 楽しい!

Img_0797.jpg

シンデレラ城 いや 眠れる美女城は かなり小さい
TDLの半分以下かな~

そんなこんなで 時間がなかったので 適当に乗り物に!
スプラッシュマウンテン・マッターホルンボブスレー・インディージョーンズ
ジャングルクルーズ・ビッグサンダーマウンテン・スペースマウンテン
くまのプーさん・ニモの海底探検 こんなやつを 消化
どれも ほとんど待ち時間なし 一番待ったのが ニモ・・・15分

そして 暗くなって 光と水のショウを見て 花火を見て 帰って来ました
所要時間 4時間

帰りは 大混雑 日本並みです

Img_0894.jpg

最後の 花火を見て 急に 思い出しました
子供の頃 日曜日の8時だっけな~ 4チャンネル
毎週 すごく 楽しみでした
今週は 何の国かな~ って

毎週 花火の上がった お城の上を ティンカーベルが飛んで
どの国にいくか決めるんです
♪たらたらたらら~~~♪ っていう 音楽で

Img_0878.jpg

まさに それなんです
100% 同じなんです
ティンカーベルが 城の上を飛ぶんです
ワイヤーでつるされた 人だけど・・・・

夢の世界
ディズニーは 本当に 同じことを やってたんですね~
すごい!
心が 50年戻って 感動の 花火でした~

そういえば その頃は 大きくなったら
ディズニーランド行きたいと 密かに思っていたのを 思い出しました
仕事 | comments (2) | -

アナハイム

今回の 宿泊場所は
ロスと サンディエゴの 中間の アナハイムという田舎の 町です
松井が ちょっと いた チームがいろところで
今は 高橋が いるかな~

そして ホテルは

Img_0704.jpg

こんな場所です
田舎とはいえ 立派なホテルです

Img_0710.jpg

重厚感があって きれいなホテルです

Img_0760.jpg

ちなみに キーもかわいい!
だから~~ 仕事です!
仕事 | comments (7) | -

ロナルド・レーガン

今日は 元米国大統領の レーガンさんと ご対面です
ご本人は すでに 他界されておりますが
就任中に その名前が つけられた 空母です

まずは バスで 2時間半
巨大な 橋を 渡ります
(日本なら この橋だけで 名所指定確実)

Img_0482.jpg

ここは 島になっていて
ほとんどが 海軍基地になっています
島と言っても たぶん かなり広い
戦闘機の離発着もしたてので 中に 飛行場もあるだろうし・・・

Img_0489.jpg

コロナド海軍基地
そこら中に 軍艦が 停泊しています
すごいな~ やっぱ 米海軍は・・・・

Img_0510.jpg

そして 乗船です
「何しろ 巨大」これ以外に 言いようがない・・・・
船に入って 最初に案内された場所が

Img_0491.jpg

レーガン記念室?みたいな場所・・・
途中は 割愛(笑)

何しろでかい
乗員数 5000~6000人
飛行機 40~60機

Img_0506.jpg

なんか ガンダムを 見てる感じです
ちなみに この船は
今年3月に実施された 「ともだち作戦」の時に 三陸沖に来てくれた 空母です
続きを読む>>
仕事 | comments (9) | -

ユニバーサル スタジオ

ちょっと お時間ができたので
ユニバーサル スタジオへ 行ってきました

Img_0405.jpg

ちょと 地球儀が 小さいかな~

Img_0278.jpg

ゲートも低い気がします

でも ショーは 派手だな~

Img_0385.jpg
仕事 | comments (7) | -

WIMax

今までは Eモバイル使っていましたが
世の中では WIMAXが 主流とか
そこで biglobeの WIMAXお願いしました

行方不明にならないように 赤にしてみました(笑)

aterm.jpg

月々 約3500円で つなぎ放題
速度も まあまあ
これで いろいろなところでも NETで 遊べるぞ~~~
PC | comments (7) | -

海鮮丼・・・・

今日 お昼どうする?
なんか 新鮮な 魚介類が 食べたい
それじゃ どこ行こうか

09:00 RJCH 140000Z 17004KT 130V220 9999 FEW020 BKN080 BKN/// 21/17 Q1015 RMK 1ST020 5AC080 A2999=

函館 曇りだね~
それに ちょっと 肌寒いかも

09:00 RJFM 140000Z 04011KT 9999 FEW008 SCT012 BKN020 27/23 Q1013 RMK 1ST008 3CU012 7CU020 A2992=

宮崎なら 晴れてる
ほんじゃ 宮崎で 海鮮丼にしよう
一路 西へ!

miya31.jpg

途中経路も 良いお天気です


11:00 RJFM 140200Z 04012KT 9999 FEW010 BKN030 28/23 Q1013 RMK 1ST010 5CU030 A2991=

目的地の お天気も 飛んでいる間 晴れ

12:00 RJFM 140300Z 05011KT 9999 -SHRA FEW008 SCT015 BKN030 27/23 Q1012 RMK 1ST008 3CU015 7CU030 A2990=

着陸しようとすると
雲行きがあやしい 雨が降り始めてるじゃん

12:40 RJFM 140340Z 12007KT 1500 R27/0300VP1800U +SHRA BR FEW003 SCT006 BKN010 25/23 Q1012 RMK 1ST003 3ST006 7ST010 A2991 RI++=

なんとか 着陸すると どひゃ~~~ 土砂降り
傘積んでないよね?
次の飛行機は 降りれなくて 鹿児島行っちゃったって~

miya66.jpg

そして 目的の 海鮮丼
さすがに おいしい
努力の甲斐がありました

miya64.jpg

14:00 RJFM 140500Z 26004KT 9999 -SHRA FEW007 SCT020 BKN030 26/23 Q1012 RMK 1ST007 3CU020 5CU030 A2988=

帰る時には なんとか お天気回復・・・

今日学んだことは
出かけるときは 傘を 忘れないように!
そして できれば お天気の良いところに お昼は計画しましょう
飛行機 | comments (10) | -
CATEGORIES
NEW ENTRIES
RECOMMEND
RECENT COMMENTS
ARCHIVES
PROFILE
OTHER